Time;durP1;ratioP1;P1;durP2;ratioP2;P2;SDS_P1;SDS_P2;PMS_P1;PMS_P2;Temp;Humidity;BMP_temperature;BMP_pressure;BME280_temperature;BME280_humidity;BME280_pressure;Samples;Min_cycle;Max_cycle;Signal;HPM_P1;HPM_P2
2023/09/13 00:02:12;;;;;;;12.63;11.50;;;24.90;99.90;;;;;;6219078;28;89013;-73
2023/09/13 00:05:14;;;;;;;12.55;11.40;;;24.90;99.90;;;;;;6216216;28;87967;-73
2023/09/13 00:08:15;;;;;;;11.38;10.48;;;24.90;99.90;;;;;;6228968;28;89013;-73
2023/09/13 00:11:18;;;;;;;11.90;10.73;;;24.90;99.90;;;;;;6223458;28;88936;-74
2023/09/13 00:14:20;;;;;;;13.02;11.73;;;24.90;99.90;;;;;;6223621;28;89198;-73
2023/09/13 00:17:24;;;;;;;12.43;11.32;;;24.90;99.90;;;;;;6221350;28;89020;-73
2023/09/13 00:20:27;;;;;;;11.45;10.48;;;24.90;99.90;;;;;;6219147;28;88324;-72
2023/09/13 00:23:29;;;;;;;12.48;11.38;;;24.90;99.90;;;;;;6215523;28;91487;-73
2023/09/13 00:26:31;;;;;;;12.77;11.57;;;24.90;99.90;;;;;;6223681;28;88822;-74
2023/09/13 00:29:34;;;;;;;13.38;12.15;;;24.80;99.90;;;;;;6226085;28;90370;-73
2023/09/13 00:32:37;;;;;;;12.80;11.80;;;24.90;99.90;;;;;;6223731;28;89147;-74
2023/09/13 00:35:39;;;;;;;12.85;11.75;;;24.80;99.90;;;;;;6228709;28;89331;-73
2023/09/13 00:38:41;;;;;;;12.75;11.57;;;24.90;99.90;;;;;;6226537;28;89471;-74
2023/09/13 00:41:43;;;;;;;12.63;11.52;;;24.90;99.90;;;;;;6226695;28;89343;-73
2023/09/13 00:44:45;;;;;;;13.90;12.45;;;24.90;99.90;;;;;;6224915;28;89066;-73
2023/09/13 00:47:49;;;;;;;12.27;11.27;;;24.80;99.90;;;;;;6225353;28;89054;-73
2023/09/13 00:50:52;;;;;;;12.35;11.35;;;24.80;99.90;;;;;;6225907;28;88296;-73
2023/09/13 00:53:56;;;;;;;11.55;10.65;;;24.80;99.90;;;;;;6221962;28;88975;-73
2023/09/13 00:56:58;;;;;;;12.95;11.75;;;24.80;99.90;;;;;;6225789;28;89442;-74
2023/09/13 01:00:00;;;;;;;13.05;11.95;;;24.90;99.90;;;;;;6227959;28;90357;-72
2023/09/13 01:03:06;;;;;;;12.70;11.63;;;24.90;99.90;;;;;;6223645;28;87481;-73
2023/09/13 01:06:09;;;;;;;12.60;11.52;;;24.80;99.90;;;;;;6226574;28;89921;-73
2023/09/13 01:09:13;;;;;;;12.07;11.07;;;24.80;99.90;;;;;;6222546;28;89227;-74
2023/09/13 01:12:15;;;;;;;12.63;11.52;;;24.80;99.90;;;;;;6227345;28;89089;-74
2023/09/13 01:15:18;;;;;;;12.32;11.30;;;24.80;99.90;;;;;;6227795;28;89833;-70
2023/09/13 01:18:26;;;;;;;12.32;11.10;;;24.80;99.90;;;;;;6227370;28;87161;-71
2023/09/13 01:21:53;;;;;;;12.07;10.93;;;24.80;99.90;;;;;;6227506;28;88411;-71
2023/09/13 01:25:22;;;;;;;13.13;11.95;;;24.80;99.90;;;;;;6223754;28;89339;-74
2023/09/13 01:28:41;;;;;;;11.77;10.68;;;24.80;99.90;;;;;;6232395;28;89047;-72
2023/09/13 01:31:44;;;;;;;13.65;12.32;;;24.80;99.90;;;;;;6227260;28;90166;-72
2023/09/13 01:34:46;;;;;;;11.43;10.30;;;24.80;99.90;;;;;;6229599;28;90720;-73
2023/09/13 01:37:48;;;;;;;12.25;11.20;;;24.80;99.90;;;;;;6229766;28;88038;-72
2023/09/13 01:40:52;;;;;;;12.95;11.70;;;24.80;99.90;;;;;;6221815;28;89000;-73
2023/09/13 01:43:58;;;;;;;12.30;11.20;;;24.80;99.90;;;;;;6222303;28;89106;-72
2023/09/13 01:47:01;;;;;;;12.57;11.40;;;24.80;99.90;;;;;;6231253;28;89164;-73
2023/09/13 01:50:05;;;;;;;12.38;11.30;;;24.80;99.90;;;;;;6231616;28;89922;-73
2023/09/13 01:53:07;;;;;;;12.32;11.13;;;24.80;99.90;;;;;;6229226;28;89645;-73
2023/09/13 01:56:09;;;;;;;12.65;11.60;;;24.80;99.90;;;;;;6224579;28;89025;-74
2023/09/13 01:59:12;;;;;;;12.95;11.80;;;24.80;99.90;;;;;;6230188;28;89290;-76
2023/09/13 02:02:14;;;;;;;12.65;11.45;;;24.80;99.90;;;;;;6228822;28;90291;-74
2023/09/13 02:05:16;;;;;;;12.35;11.23;;;24.80;99.90;;;;;;6215635;28;89032;-74
2023/09/13 02:08:18;;;;;;;12.65;11.45;;;24.80;99.90;;;;;;6226347;28;89089;-75
2023/09/13 02:11:20;;;;;;;12.68;11.38;;;24.80;99.90;;;;;;6229757;28;89065;-76
2023/09/13 02:14:24;;;;;;;12.40;11.20;;;24.80;99.90;;;;;;6231082;28;89374;-76
2023/09/13 02:17:26;;;;;;;12.18;11.10;;;24.80;99.90;;;;;;6224763;28;88410;-75
2023/09/13 02:20:28;;;;;;;12.10;11.10;;;24.80;99.90;;;;;;6221554;28;89373;-76
2023/09/13 02:23:30;;;;;;;12.30;11.30;;;24.80;99.90;;;;;;6220537;28;88321;-75
2023/09/13 02:26:31;;;;;;;11.52;10.52;;;24.70;99.90;;;;;;6220337;28;88679;-75
2023/09/13 02:29:35;;;;;;;12.13;11.13;;;24.70;99.90;;;;;;6219623;28;89630;-75
2023/09/13 02:32:37;;;;;;;12.88;11.57;;;24.80;99.90;;;;;;6220561;28;90121;-73
2023/09/13 02:35:39;;;;;;;12.90;11.80;;;24.80;99.90;;;;;;6221223;28;89527;-74
2023/09/13 02:38:41;;;;;;;12.63;11.48;;;24.70;99.90;;;;;;6220238;28;90088;-74
2023/09/13 02:41:43;;;;;;;11.75;10.82;;;24.80;99.90;;;;;;6219378;28;89502;-74
2023/09/13 02:44:46;;;;;;;11.38;10.48;;;24.80;99.90;;;;;;6221753;28;89417;-74
2023/09/13 02:47:48;;;;;;;11.90;10.85;;;24.70;99.90;;;;;;6223574;28;89130;-74
2023/09/13 02:50:50;;;;;;;11.88;10.80;;;24.70;99.90;;;;;;6221151;28;89145;-73
2023/09/13 02:53:52;;;;;;;11.98;10.98;;;24.70;99.90;;;;;;6222006;28;88367;-73
2023/09/13 02:56:54;;;;;;;11.82;10.82;;;24.80;99.90;;;;;;6222684;28;89037;-73
2023/09/13 02:59:57;;;;;;;12.57;11.43;;;24.70;99.90;;;;;;6222652;28;88922;-76
2023/09/13 03:02:59;;;;;;;12.88;11.68;;;24.70;99.90;;;;;;6219010;28;90548;-76
2023/09/13 03:06:11;;;;;;;12.55;11.38;;;24.70;99.90;;;;;;6220873;28;89064;-75
2023/09/13 03:09:14;;;;;;;12.15;11.00;;;24.70;99.90;;;;;;6219623;28;89345;-74
2023/09/13 03:12:16;;;;;;;12.00;10.90;;;24.70;99.90;;;;;;6218818;28;89384;-74
2023/09/13 03:15:19;;;;;;;10.82;9.93;;;24.70;99.90;;;;;;6219413;28;89342;-73
2023/09/13 03:18:21;;;;;;;11.82;10.73;;;24.70;99.90;;;;;;6222866;28;89343;-74
2023/09/13 03:21:24;;;;;;;11.38;10.38;;;24.70;99.90;;;;;;6218903;28;88465;-74
2023/09/13 03:24:26;;;;;;;10.52;9.50;;;24.70;99.90;;;;;;6217101;28;87755;-72
2023/09/13 03:27:28;;;;;;;11.48;10.48;;;24.70;99.90;;;;;;6218229;28;89133;-73
2023/09/13 03:30:34;;;;;;;12.30;11.20;;;24.70;99.90;;;;;;6220752;28;89100;-72
2023/09/13 03:33:36;;;;;;;11.85;10.75;;;24.70;99.90;;;;;;6221089;28;88887;-72
2023/09/13 03:36:39;;;;;;;11.30;10.20;;;24.70;99.90;;;;;;6223108;28;89531;-71
2023/09/13 03:39:40;;;;;;;11.52;10.48;;;24.70;99.90;;;;;;6226055;28;89242;-74
2023/09/13 03:42:42;;;;;;;11.18;10.18;;;24.70;99.90;;;;;;6223236;28;88951;-73
2023/09/13 03:45:46;;;;;;;11.48;10.48;;;24.70;99.90;;;;;;6220888;28;89131;-73
2023/09/13 03:48:48;;;;;;;11.30;10.30;;;24.70;99.90;;;;;;6218797;28;89173;-72
2023/09/13 03:51:50;;;;;;;10.63;9.80;;;24.70;99.90;;;;;;6227081;28;89416;-71
2023/09/13 03:54:52;;;;;;;11.30;10.30;;;24.70;99.90;;;;;;6224738;28;87965;-73
2023/09/13 03:57:54;;;;;;;11.50;10.50;;;24.70;99.90;;;;;;6228895;28;89520;-73
2023/09/13 04:00:58;;;;;;;11.60;10.43;;;24.70;99.90;;;;;;6226694;28;89046;-71
2023/09/13 04:04:00;;;;;;;11.48;10.38;;;24.70;99.90;;;;;;6227047;28;89618;-71
2023/09/13 04:07:02;;;;;;;11.85;10.65;;;24.70;99.90;;;;;;6224642;28;89096;-72
2023/09/13 04:10:06;;;;;;;11.27;10.23;;;24.70;99.90;;;;;;6218296;28;87952;-72
2023/09/13 04:13:08;;;;;;;10.90;9.90;;;24.70;99.90;;;;;;6218675;28;89805;-71
2023/09/13 04:16:16;;;;;;;10.82;9.77;;;24.70;99.90;;;;;;6228599;28;89128;-71
2023/09/13 04:19:18;;;;;;;10.10;9.30;;;24.70;99.90;;;;;;6223098;28;90006;-71
2023/09/13 04:22:20;;;;;;;10.68;9.63;;;24.70;99.90;;;;;;6228469;28;89344;-71
2023/09/13 04:25:22;;;;;;;10.95;10.00;;;24.70;99.90;;;;;;6223459;28;87192;-71
2023/09/13 04:28:24;;;;;;;10.63;9.73;;;24.70;99.90;;;;;;6227413;28;87987;-71
2023/09/13 04:31:29;;;;;;;10.43;9.63;;;24.70;99.90;;;;;;6224164;28;88296;-72
2023/09/13 04:34:36;;;;;;;10.52;9.50;;;24.70;99.90;;;;;;6228608;28;90005;-73
2023/09/13 04:37:38;;;;;;;10.20;9.20;;;24.60;99.90;;;;;;6231842;28;89256;-73
2023/09/13 04:40:43;;;;;;;10.40;9.40;;;24.70;99.90;;;;;;6228804;28;89056;-73
2023/09/13 04:43:45;;;;;;;9.48;8.68;;;24.60;99.90;;;;;;6227096;28;89106;-73
2023/09/13 04:46:48;;;;;;;9.98;9.10;;;24.60;99.90;;;;;;6227999;28;89196;-73
2023/09/13 04:49:50;;;;;;;9.65;8.65;;;24.60;99.90;;;;;;6225365;28;89263;-72
2023/09/13 04:52:52;;;;;;;9.65;8.65;;;24.70;99.90;;;;;;6230372;28;89265;-72
2023/09/13 04:55:54;;;;;;;8.25;7.43;;;24.60;99.90;;;;;;6226328;28;88327;-72
2023/09/13 04:58:56;;;;;;;8.15;7.45;;;24.60;99.90;;;;;;6224722;28;88316;-73
2023/09/13 05:01:59;;;;;;;9.07;8.18;;;24.60;99.90;;;;;;6233896;28;88994;-71
2023/09/13 05:05:01;;;;;;;8.70;8.00;;;24.60;99.90;;;;;;6231891;28;90014;-72
2023/09/13 05:08:03;;;;;;;8.48;7.72;;;24.60;99.90;;;;;;6222534;28;89362;-70
2023/09/13 05:11:05;;;;;;;7.90;7.20;;;24.60;99.90;;;;;;6224039;28;87945;-71
2023/09/13 05:14:12;;;;;;;8.02;7.32;;;24.60;99.90;;;;;;6233369;28;88995;-70
2023/09/13 05:17:15;;;;;;;8.13;7.43;;;24.60;99.90;;;;;;6233306;28;89358;-70
2023/09/13 05:20:17;;;;;;;8.75;7.90;;;24.60;99.90;;;;;;6226276;28;89064;-71
2023/09/13 05:23:19;;;;;;;8.13;7.03;;;24.60;99.90;;;;;;6232243;28;89060;-70
2023/09/13 05:26:21;;;;;;;7.22;6.63;;;24.60;99.90;;;;;;6233263;28;88306;-71
2023/09/13 05:29:23;;;;;;;6.85;6.15;;;24.60;99.90;;;;;;6224328;28;88957;-71
2023/09/13 05:32:27;;;;;;;6.35;5.80;;;24.60;99.90;;;;;;6226547;28;88967;-71
2023/09/13 05:35:32;;;;;;;8.27;6.55;;;24.60;99.90;;;;;;6233282;28;89972;-71
2023/09/13 05:38:33;;;;;;;6.97;6.32;;;24.70;99.90;;;;;;6233469;28;89085;-71
2023/09/13 05:41:37;;;;;;;8.15;7.28;;;24.60;99.90;;;;;;6223591;28;89024;-71
2023/09/13 05:44:39;;;;;;;7.60;6.90;;;24.60;99.90;;;;;;6231316;28;88925;-71
2023/09/13 05:47:42;;;;;;;6.57;6.00;;;24.60;99.90;;;;;;6229691;28;87944;-71
2023/09/13 05:50:44;;;;;;;6.60;6.00;;;24.60;99.90;;;;;;6230583;28;89110;-71
2023/09/13 05:53:46;;;;;;;6.95;6.35;;;24.60;99.90;;;;;;6232340;28;88974;-71
2023/09/13 05:56:48;;;;;;;6.70;6.15;;;24.60;99.90;;;;;;6230104;28;88284;-71
2023/09/13 05:59:50;;;;;;;6.88;6.18;;;24.60;99.90;;;;;;6217728;28;88997;-71
2023/09/13 06:02:53;;;;;;;6.85;6.15;;;24.60;99.90;;;;;;6229412;28;89238;-72
2023/09/13 06:05:55;;;;;;;6.93;6.20;;;24.60;99.90;;;;;;6227538;28;90492;-71
2023/09/13 06:08:58;;;;;;;8.07;6.30;;;24.60;99.90;;;;;;6232645;28;89028;-72
2023/09/13 06:12:01;;;;;;;6.32;5.70;;;24.60;99.90;;;;;;6232754;28;89188;-71
2023/09/13 06:15:03;;;;;;;7.75;6.50;;;24.60;99.90;;;;;;6230963;28;89140;-71
2023/09/13 06:18:07;;;;;;;7.57;6.88;;;24.60;99.90;;;;;;6232115;28;89037;-71
2023/09/13 06:21:09;;;;;;;8.38;6.45;;;24.60;99.90;;;;;;6232246;28;89057;-72
2023/09/13 06:24:11;;;;;;;8.77;6.15;;;24.60;99.90;;;;;;6220099;28;89314;-71
2023/09/13 06:27:13;;;;;;;6.72;6.03;;;24.60;99.90;;;;;;6229309;28;88729;-72
2023/09/13 06:30:15;;;;;;;5.70;5.13;;;24.60;99.90;;;;;;6228115;28;89971;-71
2023/09/13 06:33:18;;;;;;;6.32;5.57;;;24.60;99.90;;;;;;6221248;28;89101;-71
2023/09/13 06:36:21;;;;;;;6.15;5.57;;;24.60;99.90;;;;;;6224324;28;90065;-71
2023/09/13 06:39:23;;;;;;;5.70;5.20;;;24.60;99.90;;;;;;6228788;28;89085;-71
2023/09/13 06:42:25;;;;;;;5.88;5.28;;;24.70;99.90;;;;;;6224956;28;88891;-72
2023/09/13 06:45:27;;;;;;;6.35;5.20;;;24.60;99.90;;;;;;6226484;28;89139;-71
2023/09/13 06:48:30;;;;;;;6.03;5.00;;;24.60;99.90;;;;;;6223763;28;88967;-69
2023/09/13 06:51:32;;;;;;;5.30;4.80;;;24.60;99.90;;;;;;6225307;28;89147;-69
2023/09/13 06:54:34;;;;;;;7.43;5.15;;;24.70;99.90;;;;;;6228291;28;89261;-69
2023/09/13 06:57:36;;;;;;;6.47;4.20;;;24.70;99.90;;;;;;6228191;28;87242;-69
2023/09/13 07:00:39;;;;;;;6.07;4.68;;;24.70;99.90;;;;;;6228598;28;89112;-71
2023/09/13 07:03:42;;;;;;;6.45;4.20;;;24.70;99.90;;;;;;6231181;28;89488;-71
2023/09/13 07:06:44;;;;;;;4.47;3.90;;;24.70;99.90;;;;;;6229930;28;90307;-72
2023/09/13 07:09:46;;;;;;;3.92;3.50;;;24.70;99.90;;;;;;6222786;28;89179;-72
2023/09/13 07:12:48;;;;;;;4.00;3.63;;;24.70;99.90;;;;;;6226511;28;88989;-71
2023/09/13 07:15:50;;;;;;;5.18;3.75;;;24.70;99.90;;;;;;6232216;28;87928;-71
2023/09/13 07:18:55;;;;;;;4.05;3.65;;;24.70;99.90;;;;;;6226770;28;89023;-72
2023/09/13 07:21:57;;;;;;;4.20;3.80;;;24.70;99.90;;;;;;6229555;28;89123;-72
2023/09/13 07:24:59;;;;;;;5.15;3.90;;;24.70;99.90;;;;;;6222380;28;89069;-72
2023/09/13 07:28:02;;;;;;;4.35;3.85;;;24.70;99.90;;;;;;6227433;28;88307;-72
2023/09/13 07:31:07;;;;;;;4.35;3.88;;;24.70;99.90;;;;;;6229839;28;87942;-71
2023/09/13 07:34:10;;;;;;;8.27;4.93;;;24.70;99.90;;;;;;6221809;28;89003;-71
2023/09/13 07:37:12;;;;;;;4.55;4.10;;;24.80;99.90;;;;;;6223684;28;91199;-71
2023/09/13 07:40:14;;;;;;;4.75;3.90;;;24.70;99.90;;;;;;6228140;28;89015;-71
2023/09/13 07:43:16;;;;;;;6.13;4.22;;;24.70;99.90;;;;;;6226611;28;89121;-72
2023/09/13 07:46:18;;;;;;;6.30;4.30;;;24.70;99.90;;;;;;6225827;28;89008;-72
2023/09/13 07:49:21;;;;;;;4.75;3.95;;;24.70;99.90;;;;;;6227992;28;89150;-72
2023/09/13 07:52:24;;;;;;;6.10;4.57;;;24.70;99.90;;;;;;6225745;28;89056;-71
2023/09/13 07:55:26;;;;;;;7.72;5.03;;;24.70;99.90;;;;;;6230454;28;89357;-71
2023/09/13 07:58:28;;;;;;;6.15;4.32;;;24.80;99.90;;;;;;6230510;28;87268;-71
2023/09/13 08:01:30;;;;;;;5.40;4.40;;;24.80;99.90;;;;;;6230184;28;89042;-71
2023/09/13 08:04:34;;;;;;;4.65;4.25;;;24.80;99.90;;;;;;6226664;28;89048;-71
2023/09/13 08:07:36;;;;;;;6.55;5.20;;;24.80;99.90;;;;;;6222818;28;89978;-72
2023/09/13 08:10:40;;;;;;;6.05;4.82;;;24.80;99.90;;;;;;6214981;28;89913;-72
2023/09/13 08:13:42;;;;;;;5.65;4.72;;;24.80;99.90;;;;;;6217866;28;89330;-71
2023/09/13 08:16:44;;;;;;;5.65;4.80;;;24.80;99.90;;;;;;6230988;28;88105;-71
2023/09/13 08:19:48;;;;;;;5.38;4.88;;;24.80;99.90;;;;;;6230563;28;89261;-72
2023/09/13 08:22:49;;;;;;;7.05;5.00;;;24.80;99.90;;;;;;6229548;28;89154;-71
2023/09/13 08:25:52;;;;;;;6.47;5.20;;;24.80;99.90;;;;;;6222631;28;89137;-71
2023/09/13 08:28:54;;;;;;;6.45;5.20;;;24.80;99.90;;;;;;6220899;28;88322;-71
2023/09/13 08:31:56;;;;;;;6.82;4.85;;;24.80;99.90;;;;;;6230724;28;89034;-71
2023/09/13 08:34:59;;;;;;;7.38;5.28;;;24.80;99.90;;;;;;6230448;28;88130;-72
2023/09/13 08:38:01;;;;;;;5.90;5.30;;;24.80;99.90;;;;;;6229392;28;88858;-71
2023/09/13 08:41:03;;;;;;;6.18;4.95;;;24.80;99.90;;;;;;6230081;28;89025;-71
2023/09/13 08:44:07;;;;;;;6.50;5.32;;;24.80;99.90;;;;;;6226988;28;89550;-71
2023/09/13 08:47:11;;;;;;;5.95;5.35;;;24.80;99.90;;;;;;6222615;28;89628;-71
2023/09/13 08:50:19;;;;;;;6.45;5.20;;;24.70;99.90;;;;;;6225901;28;89034;-71
2023/09/13 08:53:23;;;;;;;7.20;5.63;;;24.80;99.90;;;;;;6229524;28;89118;-72
2023/09/13 08:56:25;;;;;;;7.57;5.50;;;24.70;99.90;;;;;;6230359;28;89287;-72
2023/09/13 08:59:28;;;;;;;6.25;5.47;;;24.80;99.90;;;;;;6229238;28;88213;-71
2023/09/13 09:02:32;;;;;;;6.00;5.30;;;24.70;99.90;;;;;;6229374;28;88943;-71
2023/09/13 09:05:37;;;;;;;5.63;5.13;;;24.80;99.90;;;;;;6219398;28;89406;-69
2023/09/13 09:08:40;;;;;;;6.47;5.40;;;24.80;99.90;;;;;;6218342;28;88962;-70
2023/09/13 09:11:44;;;;;;;7.30;5.47;;;24.80;99.90;;;;;;6229278;28;89165;-70
2023/09/13 09:14:47;;;;;;;5.97;5.47;;;24.80;99.90;;;;;;6230094;28;88910;-69
2023/09/13 09:17:51;;;;;;;9.20;5.65;;;24.80;99.90;;;;;;6230139;28;88270;-69
2023/09/13 09:20:55;;;;;;;6.80;5.82;;;24.80;99.90;;;;;;6229678;28;89367;-70
2023/09/13 09:23:58;;;;;;;7.43;5.63;;;24.80;99.90;;;;;;6228324;28;89852;-69
2023/09/13 09:27:00;;;;;;;6.68;6.00;;;24.80;99.90;;;;;;6229631;28;89365;-70
2023/09/13 09:30:03;;;;;;;7.18;6.13;;;24.80;99.90;;;;;;6229419;28;88358;-69
2023/09/13 09:33:06;;;;;;;6.13;5.53;;;24.80;99.90;;;;;;6234116;28;89359;-71
2023/09/13 09:36:10;;;;;;;6.20;5.60;;;24.80;99.90;;;;;;6234573;28;89025;-70
2023/09/13 09:39:15;;;;;;;5.85;5.25;;;24.80;99.90;;;;;;6233375;28;89646;-70
2023/09/13 09:42:17;;;;;;;6.55;5.70;;;24.80;99.90;;;;;;6231914;28;89132;-70
2023/09/13 09:45:19;;;;;;;6.25;5.65;;;24.70;99.90;;;;;;6234058;28;88757;-70
2023/09/13 09:48:21;;;;;;;6.32;5.72;;;24.80;99.90;;;;;;6233687;28;89062;-70
2023/09/13 09:51:25;;;;;;;6.40;5.80;;;24.80;99.90;;;;;;6233125;28;89002;-70
2023/09/13 09:54:27;;;;;;;6.53;5.93;;;24.80;99.90;;;;;;6233020;28;89009;-70
2023/09/13 09:57:29;;;;;;;6.45;5.80;;;24.80;99.90;;;;;;6232853;28;89041;-70
2023/09/13 10:00:31;;;;;;;7.18;6.05;;;24.80;99.90;;;;;;6233628;28;88323;-70
2023/09/13 10:03:34;;;;;;;6.57;5.97;;;24.70;99.90;;;;;;6232058;28;89488;-70
2023/09/13 10:06:38;;;;;;;7.63;6.15;;;24.80;99.90;;;;;;6232453;28;89032;-70
2023/09/13 10:09:40;;;;;;;6.75;6.15;;;24.80;99.90;;;;;;6232066;28;89878;-70
2023/09/13 10:12:47;;;;;;;6.47;5.88;;;24.80;99.90;;;;;;6233025;28;89018;-70
2023/09/13 10:15:49;;;;;;;7.20;6.05;;;24.80;99.90;;;;;;6233391;28;88241;-69
2023/09/13 10:18:52;;;;;;;7.10;6.40;;;24.80;99.90;;;;;;6232388;28;89338;-70
2023/09/13 10:21:56;;;;;;;9.73;6.60;;;24.80;99.90;;;;;;6231006;28;89012;-70
2023/09/13 10:25:03;;;;;;;7.35;6.65;;;24.80;99.90;;;;;;6224084;28;89352;-70
2023/09/13 10:28:08;;;;;;;6.93;6.25;;;24.80;99.90;;;;;;6228157;28;89419;-69
2023/09/13 10:31:16;;;;;;;7.80;6.35;;;24.80;99.90;;;;;;6231786;28;88296;-70
2023/09/13 10:34:23;;;;;;;6.90;6.30;;;24.80;99.90;;;;;;6227070;28;89097;-71
2023/09/13 10:37:36;;;;;;;6.35;5.72;;;24.80;99.90;;;;;;6231004;28;89472;-71
2023/09/13 10:40:41;;;;;;;6.22;5.72;;;24.80;99.90;;;;;;6228867;28;90093;-71
2023/09/13 10:43:46;;;;;;;7.10;6.38;;;24.80;99.90;;;;;;6231918;28;87957;-71
2023/09/13 10:46:49;;;;;;;6.43;5.82;;;24.80;99.90;;;;;;6232924;28;89129;-72
2023/09/13 10:49:52;;;;;;;6.95;6.10;;;24.80;99.90;;;;;;6232003;28;89109;-72
2023/09/13 10:52:57;;;;;;;7.15;6.45;;;24.90;99.90;;;;;;6230473;28;89557;-71
2023/09/13 10:55:59;;;;;;;6.53;5.88;;;24.90;99.90;;;;;;6232387;28;89167;-71
2023/09/13 10:59:03;;;;;;;7.07;6.15;;;24.90;99.90;;;;;;6229964;28;89147;-71
2023/09/13 11:02:07;;;;;;;6.53;5.93;;;24.90;99.90;;;;;;6232651;28;87290;-71
2023/09/13 11:05:10;;;;;;;7.30;6.10;;;24.80;99.90;;;;;;6232012;28;88939;-71
2023/09/13 11:08:27;;;;;;;6.88;6.20;;;24.80;99.90;;;;;;6231528;28;88239;-72
2023/09/13 11:11:29;;;;;;;7.22;6.40;;;24.80;99.90;;;;;;6225574;28;90106;-71
2023/09/13 11:14:33;;;;;;;7.70;5.95;;;24.80;99.90;;;;;;6225321;28;88963;-71
2023/09/13 11:17:38;;;;;;;7.15;6.28;;;24.80;99.90;;;;;;6228078;28;89031;-72
2023/09/13 11:20:42;;;;;;;7.80;6.10;;;24.90;99.90;;;;;;6219107;28;89211;-72
2023/09/13 11:23:50;;;;;;;6.88;6.28;;;24.90;99.90;;;;;;6228838;28;87733;-71
2023/09/13 11:26:54;;;;;;;7.85;6.18;;;24.90;99.90;;;;;;6229572;28;88975;-72
2023/09/13 11:30:00;;;;;;;7.20;6.13;;;24.90;99.90;;;;;;6228899;28;88986;-72
2023/09/13 11:33:03;;;;;;;8.07;5.68;;;24.90;99.90;;;;;;6233073;28;88707;-71
2023/09/13 11:36:08;;;;;;;7.07;5.78;;;24.90;99.90;;;;;;6231467;28;89249;-70
2023/09/13 11:39:12;;;;;;;9.13;6.60;;;24.90;99.90;;;;;;6221822;28;89123;-72
2023/09/13 11:42:14;;;;;;;8.32;6.45;;;24.90;99.90;;;;;;6227702;28;89832;-73
2023/09/13 11:45:16;;;;;;;6.88;6.22;;;24.90;99.90;;;;;;6230415;28;89032;-73
2023/09/13 11:48:28;;;;;;;7.13;6.40;;;25.00;99.90;;;;;;6225311;28;89427;-74
2023/09/13 11:51:33;;;;;;;8.18;5.95;;;24.90;99.90;;;;;;6228720;28;89007;-73
2023/09/13 11:54:53;;;;;;;8.43;6.05;;;24.90;99.90;;;;;;6231399;28;88877;-74
2023/09/13 11:57:56;;;;;;;8.55;6.45;;;25.00;99.90;;;;;;6229717;28;89118;-73
2023/09/13 12:01:00;;;;;;;9.75;7.10;;;25.00;99.90;;;;;;6228985;28;89367;-72
2023/09/13 12:04:04;;;;;;;10.93;7.30;;;25.00;99.90;;;;;;6230403;28;87147;-74
2023/09/13 12:07:10;;;;;;;12.52;7.47;;;24.90;99.90;;;;;;6222185;28;89311;-73
2023/09/13 12:10:14;;;;;;;10.75;7.63;;;25.00;99.90;;;;;;6230236;28;89082;-73
2023/09/13 12:13:16;;;;;;;10.65;7.75;;;25.00;99.90;;;;;;6228107;28;89799;-73
2023/09/13 12:16:18;;;;;;;9.88;7.43;;;25.00;99.90;;;;;;6229603;28;89000;-72
2023/09/13 12:19:20;;;;;;;8.80;7.22;;;25.00;99.90;;;;;;6229584;28;88914;-72
2023/09/13 12:22:24;;;;;;;9.27;7.20;;;24.90;99.90;;;;;;6228148;28;89184;-72
2023/09/13 12:25:28;;;;;;;12.18;7.53;;;24.90;99.90;;;;;;6230315;28;88916;-72
2023/09/13 12:28:34;;;;;;;14.20;8.23;;;24.90;99.90;;;;;;6216559;28;89484;-72
2023/09/13 12:31:36;;;;;;;15.07;8.90;;;24.90;99.90;;;;;;6220123;28;89129;-73
2023/09/13 12:34:38;;;;;;;20.65;11.05;;;25.00;99.90;;;;;;6229580;28;88422;-73
2023/09/13 12:37:41;;;;;;;18.20;9.63;;;24.90;99.90;;;;;;6229344;28;89014;-73
2023/09/13 12:40:49;;;;;;;19.10;10.30;;;25.00;99.90;;;;;;6229597;28;89366;-73
2023/09/13 12:43:52;;;;;;;18.08;9.85;;;25.00;99.90;;;;;;6228787;28;88808;-72
2023/09/13 12:46:54;;;;;;;16.15;9.05;;;25.00;99.90;;;;;;6222756;28;89166;-72
2023/09/13 12:49:56;;;;;;;13.27;8.60;;;25.00;99.90;;;;;;6229057;28;89092;-73
2023/09/13 12:52:58;;;;;;;11.70;7.90;;;24.90;99.90;;;;;;6226781;28;89054;-72
2023/09/13 12:56:02;;;;;;;12.27;7.82;;;25.00;99.90;;;;;;6229059;28;89025;-72
2023/09/13 12:59:05;;;;;;;9.57;7.65;;;25.00;99.90;;;;;;6213519;28;87962;-72
2023/09/13 13:02:12;;;;;;;10.07;7.60;;;25.00;99.90;;;;;;6232381;28;89563;-72
2023/09/13 13:05:15;;;;;;;8.70;7.32;;;25.00;99.90;;;;;;6234125;28;88365;-72
2023/09/13 13:08:17;;;;;;;9.40;7.10;;;25.00;99.90;;;;;;6231995;28;89205;-73
2023/09/13 13:11:20;;;;;;;9.30;6.60;;;25.10;99.90;;;;;;6231199;28;89106;-73
2023/09/13 13:14:26;;;;;;;7.78;6.57;;;25.10;99.90;;;;;;6232639;28;89925;-73
2023/09/13 13:17:34;;;;;;;7.90;6.43;;;25.10;99.90;;;;;;6234271;28;89106;-73
2023/09/13 13:20:36;;;;;;;8.77;6.28;;;25.10;99.90;;;;;;6228528;28;89085;-73
2023/09/13 13:23:43;;;;;;;10.70;7.00;;;25.00;99.90;;;;;;6222930;28;89282;-72
2023/09/13 13:26:46;;;;;;;9.98;6.20;;;25.00;99.90;;;;;;6228551;28;88908;-70
2023/09/13 13:29:48;;;;;;;495.10;146.80;;;25.10;99.90;;;;;;6234698;28;89098;-70
2023/09/13 13:32:51;;;;;;;230.55;65.75;;;25.10;99.90;;;;;;6228883;28;88965;-69
2023/09/13 13:35:56;;;;;;;106.20;33.65;;;25.20;99.90;;;;;;6233003;28;88758;-71
2023/09/13 13:38:59;;;;;;;59.53;21.98;;;25.30;99.90;;;;;;6229193;28;89148;-72
2023/09/13 13:42:03;;;;;;;57.05;18.40;;;25.30;99.90;;;;;;6226821;28;89477;-71
2023/09/13 13:45:07;;;;;;;38.60;16.45;;;25.50;99.90;;;;;;6230942;28;89368;-71
2023/09/13 13:48:10;;;;;;;35.47;13.15;;;25.50;99.90;;;;;;6232869;28;88010;-71
2023/09/13 13:51:14;;;;;;;173.00;111.80;;;25.60;99.90;;;;;;6231574;28;87825;-69
2023/09/13 13:54:17;;;;;;;39.47;20.40;;;25.70;99.90;;;;;;6229904;28;87076;-70
2023/09/13 13:57:23;;;;;;;38.88;14.20;;;25.70;99.90;;;;;;6232341;28;88251;-69
2023/09/13 14:00:27;;;;;;;28.02;12.10;;;25.70;99.90;;;;;;6231141;28;88988;-69
2023/09/13 14:03:30;;;;;;;11.77;6.22;;;25.70;99.90;;;;;;6228741;28;88062;-71
2023/09/13 14:06:33;;;;;;;7.65;5.13;;;25.80;99.90;;;;;;6232530;28;86331;-70
2023/09/13 14:09:35;;;;;;;6.47;4.30;;;25.70;99.90;;;;;;6230061;28;88179;-71
2023/09/13 14:12:39;;;;;;;5.15;3.70;;;25.70;99.90;;;;;;6231800;28;88813;-70
2023/09/13 14:15:41;;;;;;;5.05;3.50;;;25.60;99.90;;;;;;6224604;28;90286;-72
2023/09/13 14:18:44;;;;;;;9.55;3.95;;;25.60;99.90;;;;;;6227005;28;89369;-75
2023/09/13 14:21:47;;;;;;;4.85;3.50;;;25.50;99.90;;;;;;6227569;28;87184;-71
2023/09/13 14:24:50;;;;;;;3.72;3.10;;;25.50;99.90;;;;;;6233189;28;88071;-71
2023/09/13 14:27:55;;;;;;;4.95;3.20;;;25.40;99.90;;;;;;6230798;28;88409;-71
2023/09/13 14:30:58;;;;;;;3.55;3.05;;;25.40;99.90;;;;;;6229789;28;88058;-70
2023/09/13 14:34:02;;;;;;;3.78;3.17;;;25.40;99.90;;;;;;6229027;28;88066;-72
2023/09/13 14:37:05;;;;;;;3.83;3.28;;;25.30;99.90;;;;;;6232348;28;87690;-71
2023/09/13 14:40:10;;;;;;;4.18;3.13;;;25.40;99.90;;;;;;6230132;28;88100;-72
2023/09/13 14:43:15;;;;;;;3.55;3.20;;;25.30;99.90;;;;;;6230874;28;88061;-72
2023/09/13 14:46:18;;;;;;;4.35;3.30;;;25.30;99.90;;;;;;6223439;28;89604;-72
2023/09/13 14:49:21;;;;;;;4.25;3.22;;;25.30;99.90;;;;;;6232043;28;88100;-73
2023/09/13 14:52:25;;;;;;;5.32;3.95;;;25.20;99.90;;;;;;6232138;28;89029;-72
2023/09/13 14:55:28;;;;;;;3.92;3.40;;;25.20;99.90;;;;;;6231872;28;89442;-71
2023/09/13 14:58:33;;;;;;;4.30;3.17;;;25.20;99.90;;;;;;6230267;28;87165;-74
2023/09/13 15:01:36;;;;;;;3.40;3.10;;;25.20;99.90;;;;;;6223522;28;87989;-74
2023/09/13 15:04:39;;;;;;;4.00;3.15;;;25.10;99.90;;;;;;6231492;28;88004;-74
2023/09/13 15:07:43;;;;;;;3.78;3.00;;;25.10;99.90;;;;;;6228050;28;87261;-74
2023/09/13 15:10:47;;;;;;;4.43;3.15;;;25.10;99.90;;;;;;6215416;28;87081;-74
2023/09/13 15:13:52;;;;;;;4.55;3.60;;;25.10;99.90;;;;;;6217638;28;88200;-74
2023/09/13 15:16:55;;;;;;;5.50;3.35;;;25.10;99.90;;;;;;6231189;28;89131;-74
2023/09/13 15:19:59;;;;;;;3.50;3.05;;;25.10;99.90;;;;;;6230156;28;88945;-74
2023/09/13 15:23:02;;;;;;;3.80;3.20;;;25.10;99.90;;;;;;6228058;28;88783;-74
2023/09/13 15:26:05;;;;;;;4.75;3.05;;;25.10;99.90;;;;;;6221280;28;89309;-73
2023/09/13 15:29:10;;;;;;;3.60;3.30;;;25.10;99.90;;;;;;6221751;28;87997;-74
2023/09/13 15:32:14;;;;;;;3.60;3.00;;;25.10;99.90;;;;;;6226087;28;88262;-73
2023/09/13 15:35:18;;;;;;;3.95;3.20;;;25.10;99.90;;;;;;6230543;28;88066;-74
2023/09/13 15:38:22;;;;;;;3.90;3.47;;;25.10;99.90;;;;;;6222795;28;87028;-73
2023/09/13 15:41:25;;;;;;;4.70;3.67;;;25.10;99.90;;;;;;6229771;28;89035;-74
2023/09/13 15:44:31;;;;;;;4.00;3.60;;;25.10;99.90;;;;;;6230144;28;88328;-74
2023/09/13 15:47:36;;;;;;;3.95;3.47;;;25.00;99.90;;;;;;6230158;28;88263;-74